Time;durP1;ratioP1;P1;durP2;ratioP2;P2;SDS_P1;SDS_P2;PMS_P1;PMS_P2;Temp;Humidity;BMP_temperature;BMP_pressure;BME280_temperature;BME280_humidity;BME280_pressure;Samples;Min_cycle;Max_cycle;Signal;HPM_P1;HPM_P2
2023/04/26 00:00:34;;;;;;;30.95;15.60;;;;;;;;;;4958670;28;20225;-55
2023/04/26 00:02:59;;;;;;;29.17;16.10;;;;;;;;;;4944157;28;20074;-53
2023/04/26 00:05:24;;;;;;;27.63;16.08;;;;;;;;;;4944660;28;20035;-52
2023/04/26 00:07:50;;;;;;;26.08;14.60;;;;;;;;;;4943499;28;20856;-55
2023/04/26 00:10:15;;;;;;;25.67;15.05;;;;;;;;;;4944263;28;20054;-50
2023/04/26 00:12:41;;;;;;;23.05;14.35;;;;;;;;;;4944683;28;20023;-53
2023/04/26 00:15:07;;;;;;;22.63;13.95;;;;;;;;;;4944535;28;20047;-53
2023/04/26 00:17:32;;;;;;;21.88;12.65;;;;;;;;;;4944297;28;20039;-54
2023/04/26 00:19:58;;;;;;;26.00;14.35;;;;;;;;;;4943526;28;20027;-54
2023/04/26 00:22:24;;;;;;;25.13;13.43;;;;;;;;;;4944581;28;20042;-51
2023/04/26 00:24:49;;;;;;;23.10;12.27;;;;;;;;;;4948271;28;20027;-56
2023/04/26 00:27:15;;;;;;;24.30;13.77;;;;;;;;;;4950120;28;20034;-54
2023/04/26 00:29:41;;;;;;;30.35;13.82;;;;;;;;;;4948974;28;20031;-55
2023/04/26 00:32:06;;;;;;;25.90;13.75;;;;;;;;;;4950834;28;20031;-54
2023/04/26 00:34:33;;;;;;;23.95;13.27;;;;;;;;;;4951877;28;20123;-52
2023/04/26 00:36:58;;;;;;;25.65;14.18;;;;;;;;;;4950270;28;20031;-56
2023/04/26 00:39:23;;;;;;;24.77;14.55;;;;;;;;;;4950066;28;20105;-59
2023/04/26 00:41:49;;;;;;;25.42;13.63;;;;;;;;;;4965042;28;20043;-57
2023/04/26 00:44:14;;;;;;;27.42;14.18;;;;;;;;;;4950412;28;20054;-52
2023/04/26 00:46:40;;;;;;;23.23;13.00;;;;;;;;;;4964373;28;20192;-55
2023/04/26 00:49:05;;;;;;;23.83;13.45;;;;;;;;;;4964920;28;20057;-53
2023/04/26 00:51:31;;;;;;;28.77;14.77;;;;;;;;;;4948574;28;20043;-53
2023/04/26 00:53:56;;;;;;;25.83;14.38;;;;;;;;;;4949270;28;20138;-56
2023/04/26 00:56:23;;;;;;;23.45;14.40;;;;;;;;;;4950487;28;20042;-55
2023/04/26 00:58:49;;;;;;;35.47;16.73;;;;;;;;;;4950419;28;20088;-54
2023/04/26 01:01:14;;;;;;;24.88;14.55;;;;;;;;;;4949997;28;20034;-54
2023/04/26 01:03:40;;;;;;;21.17;13.90;;;;;;;;;;4965767;23;20056;-54
2023/04/26 01:06:05;;;;;;;27.52;13.63;;;;;;;;;;4953004;28;21031;-57
2023/04/26 01:08:32;;;;;;;23.38;13.45;;;;;;;;;;4938150;28;20143;-54
2023/04/26 01:10:57;;;;;;;24.23;12.70;;;;;;;;;;4939149;28;20567;-54
2023/04/26 01:13:23;;;;;;;21.67;13.23;;;;;;;;;;4957079;28;20042;-57
2023/04/26 01:15:49;;;;;;;28.08;14.18;;;;;;;;;;4931701;28;20496;-53
2023/04/26 01:18:16;;;;;;;24.25;13.48;;;;;;;;;;4954364;28;20353;-58
2023/04/26 01:20:42;;;;;;;24.02;14.27;;;;;;;;;;4955084;28;20594;-54
2023/04/26 01:23:08;;;;;;;23.48;13.00;;;;;;;;;;4938430;28;20054;-54
2023/04/26 01:25:33;;;;;;;25.15;13.50;;;;;;;;;;4953595;28;20079;-57
2023/04/26 01:27:59;;;;;;;22.27;13.23;;;;;;;;;;4955901;28;20039;-56
2023/04/26 01:30:25;;;;;;;20.80;11.88;;;;;;;;;;4932412;28;20035;-54
2023/04/26 01:32:50;;;;;;;22.02;12.38;;;;;;;;;;4934272;28;20062;-55
2023/04/26 01:35:16;;;;;;;19.77;12.35;;;;;;;;;;4951336;28;20039;-53
2023/04/26 01:37:42;;;;;;;23.98;13.48;;;;;;;;;;4949372;28;20035;-58
2023/04/26 01:40:08;;;;;;;21.73;11.73;;;;;;;;;;4913544;28;20035;-56
2023/04/26 01:42:35;;;;;;;21.05;12.50;;;;;;;;;;4952726;28;20042;-55
2023/04/26 01:45:01;;;;;;;21.52;12.73;;;;;;;;;;4949791;28;20027;-58
2023/04/26 01:47:46;;;;;;;20.70;11.75;;;;;;;;;;4935616;28;20039;-56
2023/04/26 01:50:11;;;;;;;23.23;13.05;;;;;;;;;;4937148;28;20101;-57
2023/04/26 01:52:38;;;;;;;22.98;12.40;;;;;;;;;;4947360;28;20035;-57
2023/04/26 01:55:04;;;;;;;26.52;14.52;;;;;;;;;;4949132;28;20477;-56
2023/04/26 01:57:29;;;;;;;46.50;20.13;;;;;;;;;;4934668;28;20530;-55
2023/04/26 01:59:55;;;;;;;59.70;22.20;;;;;;;;;;4919841;28;20409;-53
2023/04/26 02:02:21;;;;;;;37.40;17.67;;;;;;;;;;4952345;28;20429;-54
2023/04/26 02:04:46;;;;;;;28.05;15.75;;;;;;;;;;4950846;28;20038;-58
2023/04/26 02:07:11;;;;;;;29.67;14.68;;;;;;;;;;4952051;28;20388;-58
2023/04/26 02:09:45;;;;;;;40.30;17.02;;;;;;;;;;4950432;28;20051;-56
2023/04/26 02:12:10;;;;;;;42.30;17.67;;;;;;;;;;4952017;28;20425;-52
2023/04/26 02:14:36;;;;;;;37.63;17.20;;;;;;;;;;4913807;28;20476;-56
2023/04/26 02:17:02;;;;;;;40.63;16.90;;;;;;;;;;4948076;28;20031;-54
2023/04/26 02:19:28;;;;;;;38.78;17.15;;;;;;;;;;4928185;28;20503;-58
2023/04/26 02:21:54;;;;;;;33.05;15.60;;;;;;;;;;4951766;28;20043;-55
2023/04/26 02:24:20;;;;;;;29.55;15.13;;;;;;;;;;4951298;28;20480;-57
2023/04/26 02:26:45;;;;;;;24.85;14.32;;;;;;;;;;4951642;28;20035;-56
2023/04/26 02:29:11;;;;;;;27.00;14.63;;;;;;;;;;4953130;28;20026;-58
2023/04/26 02:31:36;;;;;;;25.27;14.68;;;;;;;;;;4950977;28;20504;-55
2023/04/26 02:34:01;;;;;;;26.02;14.40;;;;;;;;;;4936098;28;20035;-56
2023/04/26 02:36:27;;;;;;;32.03;14.23;;;;;;;;;;4949965;28;20081;-55
2023/04/26 02:38:54;;;;;;;32.83;15.35;;;;;;;;;;4929756;28;20042;-55
2023/04/26 02:41:19;;;;;;;33.25;13.15;;;;;;;;;;4951367;28;20043;-56
2023/04/26 02:43:44;;;;;;;23.10;13.10;;;;;;;;;;4948874;28;20078;-54
2023/04/26 02:46:10;;;;;;;25.42;14.32;;;;;;;;;;4948982;28;20362;-58
2023/04/26 02:48:35;;;;;;;22.27;12.95;;;;;;;;;;4933898;28;20033;-58
2023/04/26 02:51:01;;;;;;;21.95;13.52;;;;;;;;;;4927811;28;20034;-50
2023/04/26 02:53:26;;;;;;;24.08;13.27;;;;;;;;;;4934077;28;20094;-57
2023/04/26 02:55:53;;;;;;;;;;;;;;;;;;4949413;28;20030;-58
2023/04/26 02:58:19;;;;;;;26.05;13.27;;;;;;;;;;4930794;28;19922;-59
2023/04/26 03:00:45;;;;;;;23.98;13.05;;;;;;;;;;4947276;28;20118;-58
2023/04/26 03:03:10;;;;;;;24.98;13.75;;;;;;;;;;4951062;28;20052;-56
2023/04/26 03:05:35;;;;;;;22.27;11.45;;;;;;;;;;4935297;28;20039;-60
2023/04/26 03:08:01;;;;;;;20.58;11.80;;;;;;;;;;4934352;28;20043;-54
2023/04/26 03:10:26;;;;;;;18.95;10.25;;;;;;;;;;4947279;28;20674;-57
2023/04/26 03:12:52;;;;;;;20.60;10.73;;;;;;;;;;4914155;28;20031;-59
2023/04/26 03:15:18;;;;;;;15.18;10.20;;;;;;;;;;4943956;28;20035;-57
2023/04/26 03:17:43;;;;;;;15.48;9.95;;;;;;;;;;4951648;28;20089;-55
2023/04/26 03:20:10;;;;;;;19.17;9.38;;;;;;;;;;4934465;28;20022;-58
2023/04/26 03:22:36;;;;;;;15.98;9.40;;;;;;;;;;4931483;28;20113;-57
2023/04/26 03:25:02;;;;;;;17.15;9.10;;;;;;;;;;4932378;28;20785;-57
2023/04/26 03:27:28;;;;;;;17.42;9.73;;;;;;;;;;4932292;28;20038;-54
2023/04/26 03:29:53;;;;;;;19.95;9.55;;;;;;;;;;4946842;28;20031;-57
2023/04/26 03:32:19;;;;;;;15.98;9.30;;;;;;;;;;4932540;28;20397;-54
2023/04/26 03:34:46;;;;;;;19.58;9.98;;;;;;;;;;4931254;28;20077;-57
2023/04/26 03:37:12;;;;;;;;;;;;;;;;;;4935503;28;20149;-53
2023/04/26 03:39:37;;;;;;;21.20;10.05;;;;;;;;;;4925513;28;20008;-56
2023/04/26 03:42:02;;;;;;;23.15;11.82;;;;;;;;;;4933629;28;20068;-55
2023/04/26 03:44:28;;;;;;;18.38;10.98;;;;;;;;;;4949348;28;20031;-52
2023/04/26 03:46:53;;;;;;;15.65;10.43;;;;;;;;;;4930868;28;20032;-59
2023/04/26 03:49:18;;;;;;;18.83;10.75;;;;;;;;;;4950068;28;20122;-55
2023/04/26 03:51:44;;;;;;;21.70;11.23;;;;;;;;;;4927698;28;20856;-55
2023/04/26 03:54:09;;;;;;;26.25;12.07;;;;;;;;;;4947696;28;20065;-57
2023/04/26 03:56:35;;;;;;;26.25;13.40;;;;;;;;;;4933539;28;20145;-52
2023/04/26 03:59:01;;;;;;;24.70;12.65;;;;;;;;;;4933124;28;20086;-53
2023/04/26 04:01:27;;;;;;;24.65;12.75;;;;;;;;;;4930541;28;20046;-56
2023/04/26 04:03:52;;;;;;;22.73;12.50;;;;;;;;;;4950765;28;20047;-54
2023/04/26 04:06:18;;;;;;;21.15;12.35;;;;;;;;;;4932547;28;20035;-59
2023/04/26 04:08:43;;;;;;;18.83;10.32;;;;;;;;;;4931403;28;20028;-56
2023/04/26 04:11:08;;;;;;;22.27;11.13;;;;;;;;;;4928633;28;20035;-56
2023/04/26 04:13:36;;;;;;;18.65;10.50;;;;;;;;;;4930343;28;20532;-56
2023/04/26 04:16:01;;;;;;;17.85;10.73;;;;;;;;;;4934216;28;20086;-58
2023/04/26 04:18:26;;;;;;;18.13;10.73;;;;;;;;;;4945953;28;20143;-55
2023/04/26 04:20:52;;;;;;;18.58;10.57;;;;;;;;;;4934794;28;20109;-59
2023/04/26 04:23:18;;;;;;;18.85;10.38;;;;;;;;;;4926846;28;20117;-57
2023/04/26 04:25:44;;;;;;;16.95;10.85;;;;;;;;;;4928419;28;20038;-55
2023/04/26 04:28:11;;;;;;;16.52;10.00;;;;;;;;;;4933079;28;20031;-56
2023/04/26 04:30:37;;;;;;;18.13;10.85;;;;;;;;;;4946801;28;20039;-56
2023/04/26 04:33:04;;;;;;;17.58;9.93;;;;;;;;;;4933771;28;20031;-55
2023/04/26 04:35:32;;;;;;;16.13;9.68;;;;;;;;;;4947988;28;20038;-56
2023/04/26 04:37:58;;;;;;;18.90;10.63;;;;;;;;;;4936113;28;20029;-57
2023/04/26 04:40:25;;;;;;;18.80;10.38;;;;;;;;;;4927771;28;20041;-56
2023/04/26 04:42:50;;;;;;;24.47;12.67;;;;;;;;;;4948741;28;20035;-56
2023/04/26 04:45:18;;;;;;;20.20;10.95;;;;;;;;;;4932739;28;20651;-53
2023/04/26 04:47:44;;;;;;;26.70;13.27;;;;;;;;;;4942236;28;20496;-57
2023/04/26 04:50:09;;;;;;;21.23;12.90;;;;;;;;;;4925886;28;20094;-58
2023/04/26 04:52:35;;;;;;;23.00;13.23;;;;;;;;;;4935248;28;20668;-58
2023/04/26 04:55:01;;;;;;;21.83;12.60;;;;;;;;;;4924459;28;20500;-51
2023/04/26 04:57:26;;;;;;;24.27;12.63;;;;;;;;;;4926993;28;20042;-59
2023/04/26 04:59:52;;;;;;;23.95;13.20;;;;;;;;;;4931601;28;20465;-58
2023/04/26 05:02:17;;;;;;;23.38;13.52;;;;;;;;;;4937781;28;20400;-57
2023/04/26 05:04:43;;;;;;;22.73;13.43;;;;;;;;;;4928133;28;20433;-57
2023/04/26 05:07:08;;;;;;;21.70;13.13;;;;;;;;;;4924723;28;20035;-58
2023/04/26 05:09:35;;;;;;;26.25;13.40;;;;;;;;;;4949110;28;20035;-56
2023/04/26 05:12:01;;;;;;;24.35;13.75;;;;;;;;;;4931073;28;20038;-57
2023/04/26 05:14:28;;;;;;;23.98;14.00;;;;;;;;;;4931623;28;20043;-53
2023/04/26 05:16:53;;;;;;;21.57;13.50;;;;;;;;;;4935716;28;20035;-59
2023/04/26 05:19:19;;;;;;;22.40;14.05;;;;;;;;;;4931952;28;20031;-55
2023/04/26 05:21:44;;;;;;;26.48;13.95;;;;;;;;;;4931875;28;20039;-58
2023/04/26 05:24:10;;;;;;;25.45;13.30;;;;;;;;;;4948949;28;20560;-54
2023/04/26 05:26:35;;;;;;;25.63;13.57;;;;;;;;;;4933275;28;20034;-59
2023/04/26 05:29:36;;;;;;;25.90;13.65;;;;;;;;;;4872687;29;20507;-53
2023/04/26 05:32:24;;;;;;;29.45;13.65;;;;;;;;;;4944242;28;20108;-57
2023/04/26 05:35:01;;;;;;;21.80;12.77;;;;;;;;;;4949395;28;20031;-54
2023/04/26 05:37:28;;;;;;;;;;;;;;;;;;4945643;28;20466;-57
2023/04/26 05:39:53;;;;;;;24.83;12.43;;;;;;;;;;4934164;28;19914;-54
2023/04/26 05:42:19;;;;;;;22.80;13.38;;;;;;;;;;4933592;28;20135;-55
2023/04/26 05:44:44;;;;;;;22.73;13.00;;;;;;;;;;4950572;28;20038;-57
2023/04/26 05:47:11;;;;;;;18.47;11.60;;;;;;;;;;4931738;28;20035;-54
2023/04/26 05:49:36;;;;;;;25.35;12.00;;;;;;;;;;4917124;28;20046;-57
2023/04/26 05:52:02;;;;;;;23.90;11.93;;;;;;;;;;4951848;28;20031;-56
2023/04/26 05:54:28;;;;;;;21.83;12.38;;;;;;;;;;4930277;28;20134;-61
2023/04/26 05:56:54;;;;;;;25.02;12.95;;;;;;;;;;4932691;28;20062;-56
2023/04/26 05:59:19;;;;;;;21.77;12.10;;;;;;;;;;4928598;28;20035;-59
2023/04/26 06:01:45;;;;;;;25.65;12.23;;;;;;;;;;4949223;28;20400;-58
2023/04/26 06:04:10;;;;;;;22.20;12.93;;;;;;;;;;4952463;28;20381;-56
2023/04/26 06:06:45;;;;;;;20.33;13.02;;;;;;;;;;4931588;28;20041;-60
2023/04/26 06:09:12;;;;;;;21.97;13.73;;;;;;;;;;4948181;28;20027;-56
2023/04/26 06:11:37;;;;;;;24.70;13.65;;;;;;;;;;4956087;28;20031;-58
2023/04/26 06:14:03;;;;;;;24.52;14.32;;;;;;;;;;4928011;28;20077;-58
2023/04/26 06:16:28;;;;;;;20.60;13.30;;;;;;;;;;4951356;28;20062;-56
2023/04/26 06:18:54;;;;;;;23.77;13.27;;;;;;;;;;4930917;28;20062;-52
2023/04/26 06:21:19;;;;;;;20.83;13.05;;;;;;;;;;4953237;28;20046;-53
2023/04/26 06:23:45;;;;;;;24.58;13.63;;;;;;;;;;4953394;28;20937;-57
2023/04/26 06:26:10;;;;;;;24.40;13.32;;;;;;;;;;4943110;28;20058;-54
2023/04/26 06:28:37;;;;;;;24.75;14.10;;;;;;;;;;4933754;28;20146;-56
2023/04/26 06:31:02;;;;;;;35.03;16.52;;;;;;;;;;4934389;28;20484;-55
2023/04/26 06:33:28;;;;;;;25.02;14.10;;;;;;;;;;4931073;28;20031;-56
2023/04/26 06:35:54;;;;;;;24.70;14.55;;;;;;;;;;4948449;28;20038;-58
2023/04/26 06:38:19;;;;;;;23.38;13.82;;;;;;;;;;4917855;28;20059;-56
2023/04/26 06:40:45;;;;;;;23.80;14.18;;;;;;;;;;4936487;28;20027;-54
2023/04/26 06:43:10;;;;;;;24.42;14.32;;;;;;;;;;4937422;28;20041;-55
2023/04/26 06:45:59;;;;;;;21.13;13.98;;;;;;;;;;4942537;28;20039;-58
2023/04/26 06:48:25;;;;;;;24.80;14.30;;;;;;;;;;4952721;28;20031;-59
2023/04/26 06:50:55;;;;;;;22.92;13.45;;;;;;;;;;4937169;28;20038;-57
2023/04/26 06:53:20;;;;;;;20.10;12.90;;;;;;;;;;4954235;28;20089;-55
2023/04/26 06:55:45;;;;;;;20.33;12.07;;;;;;;;;;4941610;28;20055;-54
2023/04/26 06:58:11;;;;;;;18.80;11.20;;;;;;;;;;4956192;28;20472;-56
2023/04/26 07:00:36;;;;;;;17.90;10.57;;;;;;;;;;4950817;28;20039;-55
2023/04/26 07:03:01;;;;;;;16.75;9.32;;;;;;;;;;4952790;28;20433;-58
2023/04/26 07:05:27;;;;;;;13.18;7.65;;;;;;;;;;4953822;28;20031;-57
2023/04/26 07:07:52;;;;;;;15.98;9.32;;;;;;;;;;4957058;28;20027;-56
2023/04/26 07:10:17;;;;;;;15.07;9.20;;;;;;;;;;4955524;28;20035;-54
2023/04/26 07:12:43;;;;;;;15.38;9.02;;;;;;;;;;4954253;28;20141;-54
2023/04/26 07:15:08;;;;;;;17.60;8.40;;;;;;;;;;4955228;28;20057;-56
2023/04/26 07:17:34;;;;;;;15.20;8.55;;;;;;;;;;4950867;28;20051;-56
2023/04/26 07:19:59;;;;;;;14.98;7.68;;;;;;;;;;4953079;28;20118;-55
2023/04/26 07:22:25;;;;;;;15.48;7.80;;;;;;;;;;4951019;28;20043;-55
2023/04/26 07:24:50;;;;;;;13.65;7.70;;;;;;;;;;4952063;28;20117;-54
2023/04/26 07:27:15;;;;;;;11.57;6.82;;;;;;;;;;4952858;28;20487;-56
2023/04/26 07:29:41;;;;;;;15.40;7.50;;;;;;;;;;4952105;28;20077;-57
2023/04/26 07:32:06;;;;;;;11.32;6.68;;;;;;;;;;4955202;28;20038;-57
2023/04/26 07:34:31;;;;;;;10.02;5.72;;;;;;;;;;4953785;28;20038;-57
2023/04/26 07:36:57;;;;;;;12.93;6.30;;;;;;;;;;4952259;28;20404;-55
2023/04/26 07:39:22;;;;;;;11.20;5.55;;;;;;;;;;4953086;28;20433;-57
2023/04/26 07:41:47;;;;;;;12.27;6.43;;;;;;;;;;4952751;28;20050;-57
2023/04/26 07:44:12;;;;;;;13.73;6.28;;;;;;;;;;4951463;28;20400;-55
2023/04/26 07:46:38;;;;;;;13.48;5.45;;;;;;;;;;4954007;28;20370;-55
2023/04/26 07:49:03;;;;;;;12.20;5.22;;;;;;;;;;4954508;28;20042;-54
2023/04/26 07:51:28;;;;;;;11.55;5.30;;;;;;;;;;4953027;28;20923;-55
2023/04/26 07:53:54;;;;;;;12.55;5.32;;;;;;;;;;4954961;28;20736;-54
2023/04/26 07:56:20;;;;;;;13.65;5.25;;;;;;;;;;4951270;28;20031;-56
2023/04/26 07:58:45;;;;;;;9.10;4.72;;;;;;;;;;4952141;28;20030;-53
2023/04/26 08:01:11;;;;;;;10.40;5.22;;;;;;;;;;4950724;28;20395;-53
2023/04/26 08:03:37;;;;;;;8.98;4.25;;;;;;;;;;4961668;28;20045;-59
2023/04/26 08:06:03;;;;;;;10.05;4.95;;;;;;;;;;4951278;28;20031;-55
2023/04/26 08:08:28;;;;;;;7.13;4.13;;;;;;;;;;4951308;28;20034;-56
2023/04/26 08:10:54;;;;;;;10.77;4.50;;;;;;;;;;4952033;28;20749;-55
2023/04/26 08:13:20;;;;;;;7.80;3.60;;;;;;;;;;4954471;28;20027;-55
2023/04/26 08:15:46;;;;;;;8.05;3.35;;;;;;;;;;4952564;28;20027;-55
2023/04/26 08:18:12;;;;;;;8.38;3.50;;;;;;;;;;4947974;28;20047;-53
2023/04/26 08:20:37;;;;;;;9.00;3.65;;;;;;;;;;4950890;28;20047;-55
2023/04/26 08:23:02;;;;;;;7.35;3.95;;;;;;;;;;4952357;28;20090;-56
2023/04/26 08:25:28;;;;;;;10.85;5.00;;;;;;;;;;4953617;28;20409;-53
2023/04/26 08:27:53;;;;;;;8.05;4.13;;;;;;;;;;4956212;28;20043;-57
2023/04/26 08:30:19;;;;;;;10.10;4.63;;;;;;;;;;4953829;28;20651;-55
2023/04/26 08:32:45;;;;;;;10.82;4.60;;;;;;;;;;4951775;28;20071;-55
2023/04/26 08:35:10;;;;;;;9.07;4.40;;;;;;;;;;4952936;28;20032;-51
2023/04/26 08:37:36;;;;;;;8.88;4.70;;;;;;;;;;4950399;28;20046;-48
2023/04/26 08:40:02;;;;;;;10.23;4.53;;;;;;;;;;4951431;28;20035;-55
2023/04/26 08:42:28;;;;;;;12.68;4.13;;;;;;;;;;4951729;28;20043;-54
2023/04/26 08:44:53;;;;;;;12.13;4.30;;;;;;;;;;4952924;28;20039;-53
2023/04/26 08:47:26;;;;;;;10.43;4.30;;;;;;;;;;4954388;28;20114;-56
2023/04/26 08:49:59;;;;;;;10.48;3.78;;;;;;;;;;4954666;28;20118;-52
2023/04/26 08:52:28;;;;;;;14.23;4.22;;;;;;;;;;4955776;28;20050;-57
2023/04/26 08:54:55;;;;;;;9.02;3.85;;;;;;;;;;4955283;28;20026;-57
2023/04/26 08:57:21;;;;;;;7.28;3.80;;;;;;;;;;4955409;28;20046;-56
2023/04/26 08:59:46;;;;;;;10.98;4.22;;;;;;;;;;4956363;28;20026;-57
2023/04/26 09:02:19;;;;;;;10.43;4.13;;;;;;;;;;4957720;28;20518;-56
2023/04/26 09:04:45;;;;;;;10.55;4.30;;;;;;;;;;4957675;28;20085;-55
2023/04/26 09:07:12;;;;;;;11.27;4.50;;;;;;;;;;4952880;28;20130;-56
2023/04/26 09:09:40;;;;;;;10.18;3.65;;;;;;;;;;4952715;28;20031;-58
2023/04/26 09:12:06;;;;;;;11.80;4.75;;;;;;;;;;4955044;28;20503;-56
2023/04/26 09:14:32;;;;;;;8.77;4.00;;;;;;;;;;4952033;28;20027;-57
2023/04/26 09:16:57;;;;;;;10.13;4.40;;;;;;;;;;4953404;28;20042;-54
2023/04/26 09:19:36;;;;;;;10.73;4.53;;;;;;;;;;4952538;28;20059;-57
2023/04/26 09:22:02;;;;;;;10.27;3.90;;;;;;;;;;4953179;28;20413;-56
2023/04/26 09:24:27;;;;;;;9.50;4.55;;;;;;;;;;4955528;28;20039;-55
2023/04/26 09:27:04;;;;;;;9.45;4.10;;;;;;;;;;4951668;28;20539;-55
2023/04/26 09:29:30;;;;;;;11.50;4.30;;;;;;;;;;4953168;28;20031;-59
2023/04/26 09:31:57;;;;;;;7.82;3.83;;;;;;;;;;4951196;28;20057;-58
2023/04/26 09:34:22;;;;;;;7.50;4.07;;;;;;;;;;4952632;28;20055;-58
2023/04/26 09:36:57;;;;;;;9.95;3.88;;;;;;;;;;4953714;28;20410;-57
2023/04/26 09:39:31;;;;;;;8.02;3.70;;;;;;;;;;4952196;28;20046;-54
2023/04/26 09:41:56;;;;;;;6.78;3.60;;;;;;;;;;4953957;28;20035;-58
2023/04/26 09:44:22;;;;;;;9.38;3.63;;;;;;;;;;4953099;28;20050;-55
2023/04/26 09:46:57;;;;;;;10.57;3.72;;;;;;;;;;4948207;28;20035;-57
2023/04/26 09:49:24;;;;;;;6.55;3.28;;;;;;;;;;4951736;28;20077;-53
2023/04/26 09:51:59;;;;;;;9.93;3.47;;;;;;;;;;4952789;28;20031;-59
2023/04/26 09:54:36;;;;;;;7.10;3.55;;;;;;;;;;4949804;28;20038;-53
2023/04/26 09:57:02;;;;;;;6.82;3.40;;;;;;;;;;4956528;28;20545;-53
2023/04/26 09:59:37;;;;;;;6.15;3.25;;;;;;;;;;4951549;28;20437;-56
2023/04/26 10:02:03;;;;;;;9.00;3.33;;;;;;;;;;4954694;28;20130;-55
2023/04/26 10:04:28;;;;;;;6.93;3.28;;;;;;;;;;4949588;28;20130;-57
2023/04/26 10:06:54;;;;;;;6.68;3.20;;;;;;;;;;4952177;28;20035;-56
2023/04/26 10:09:19;;;;;;;11.07;3.33;;;;;;;;;;4952856;28;20496;-56
2023/04/26 10:11:44;;;;;;;11.23;2.83;;;;;;;;;;4953795;28;20747;-58
2023/04/26 10:14:10;;;;;;;7.60;2.80;;;;;;;;;;4956219;28;20493;-59
2023/04/26 10:16:37;;;;;;;7.13;2.95;;;;;;;;;;4954077;28;20035;-55
2023/04/26 10:19:02;;;;;;;6.80;3.17;;;;;;;;;;4953907;28;20031;-55
2023/04/26 10:21:32;;;;;;;7.82;2.97;;;;;;;;;;4952966;28;20038;-54
2023/04/26 10:23:58;;;;;;;7.57;3.10;;;;;;;;;;4949972;28;20039;-56
2023/04/26 10:26:42;;;;;;;11.18;3.00;;;;;;;;;;4951542;28;20118;-57
2023/04/26 10:29:07;;;;;;;7.35;3.00;;;;;;;;;;4953798;28;20386;-58
2023/04/26 10:31:51;;;;;;;6.50;2.85;;;;;;;;;;4952470;28;20039;-54
2023/04/26 10:34:17;;;;;;;6.63;2.80;;;;;;;;;;4949922;28;20110;-57
2023/04/26 10:37:01;;;;;;;6.03;2.85;;;;;;;;;;4951609;28;20448;-53
2023/04/26 10:39:27;;;;;;;10.52;3.45;;;;;;;;;;4953604;28;20118;-54
2023/04/26 10:42:12;;;;;;;10.00;3.33;;;;;;;;;;4952460;28;20039;-57
2023/04/26 10:44:41;;;;;;;8.93;3.30;;;;;;;;;;4953799;28;20046;-57
2023/04/26 10:47:07;;;;;;;9.43;3.35;;;;;;;;;;4951937;28;20055;-55
2023/04/26 10:49:45;;;;;;;9.20;2.97;;;;;;;;;;4951113;28;20042;-55
2023/04/26 10:52:15;;;;;;;8.98;3.40;;;;;;;;;;4952965;28;20480;-54
2023/04/26 10:54:47;;;;;;;6.90;3.10;;;;;;;;;;4948833;28;20363;-55
2023/04/26 10:57:13;;;;;;;8.63;3.30;;;;;;;;;;4954291;28;20470;-54
2023/04/26 10:59:38;;;;;;;11.30;3.50;;;;;;;;;;4956194;28;20027;-56
2023/04/26 11:02:04;;;;;;;6.47;3.00;;;;;;;;;;4955325;28;20051;-57
2023/04/26 11:04:48;;;;;;;9.35;2.97;;;;;;;;;;4936976;28;20047;-61
2023/04/26 11:07:13;;;;;;;9.18;2.80;;;;;;;;;;4939136;28;20046;-57
2023/04/26 11:09:39;;;;;;;8.13;3.20;;;;;;;;;;4941210;28;20471;-53
2023/04/26 11:12:06;;;;;;;9.20;3.40;;;;;;;;;;4941046;28;20039;-52
2023/04/26 11:14:34;;;;;;;11.93;3.23;;;;;;;;;;4949762;28;20050;-49
2023/04/26 11:17:03;;;;;;;5.85;2.58;;;;;;;;;;4956496;28;20405;-47
2023/04/26 11:19:28;;;;;;;8.75;3.10;;;;;;;;;;4951408;28;20035;-55
2023/04/26 11:21:54;;;;;;;8.18;2.78;;;;;;;;;;4947568;28;20660;-54
2023/04/26 11:24:26;;;;;;;6.13;3.00;;;;;;;;;;4967863;28;20046;-56
2023/04/26 11:26:52;;;;;;;8.77;3.00;;;;;;;;;;4966207;28;20039;-56
2023/04/26 11:29:20;;;;;;;9.32;3.78;;;;;;;;;;4951223;28;20397;-56
2023/04/26 11:31:55;;;;;;;5.78;2.72;;;;;;;;;;4950542;28;20042;-56
2023/04/26 11:34:21;;;;;;;7.80;3.03;;;;;;;;;;4953606;28;20850;-57
2023/04/26 11:36:47;;;;;;;7.35;3.30;;;;;;;;;;4955293;28;20046;-56
2023/04/26 11:39:12;;;;;;;6.35;2.83;;;;;;;;;;4953434;28;20363;-58
2023/04/26 11:41:38;;;;;;;8.05;2.75;;;;;;;;;;4952963;28;20050;-55
2023/04/26 11:44:03;;;;;;;5.88;2.80;;;;;;;;;;4955597;28;20039;-57
2023/04/26 11:46:28;;;;;;;7.55;3.03;;;;;;;;;;4954716;28;20678;-59
2023/04/26 11:48:55;;;;;;;6.68;2.97;;;;;;;;;;4954870;28;20062;-57
2023/04/26 11:51:20;;;;;;;10.27;3.53;;;;;;;;;;4951186;28;20053;-57
2023/04/26 11:53:46;;;;;;;10.32;3.67;;;;;;;;;;4952230;28;20346;-56
2023/04/26 11:56:18;;;;;;;9.27;3.92;;;;;;;;;;4954965;28;20126;-56
2023/04/26 11:58:47;;;;;;;10.02;3.53;;;;;;;;;;4955582;28;20067;-56
2023/04/26 12:01:19;;;;;;;8.73;3.40;;;;;;;;;;4955634;28;20023;-58
2023/04/26 12:03:48;;;;;;;9.68;3.88;;;;;;;;;;4953232;28;20527;-55
2023/04/26 12:06:14;;;;;;;9.68;3.20;;;;;;;;;;4954563;28;20102;-55
2023/04/26 12:08:39;;;;;;;8.15;3.60;;;;;;;;;;4953969;28;20038;-58
2023/04/26 12:11:04;;;;;;;8.23;3.30;;;;;;;;;;4957702;28;20130;-56
2023/04/26 12:13:30;;;;;;;8.33;3.40;;;;;;;;;;4951525;28;20071;-54
2023/04/26 12:15:56;;;;;;;8.77;3.30;;;;;;;;;;4945707;28;20042;-55
2023/04/26 12:18:28;;;;;;;8.63;3.67;;;;;;;;;;4949978;28;20031;-57
2023/04/26 12:20:56;;;;;;;7.63;3.53;;;;;;;;;;4952887;28;20118;-56
2023/04/26 12:23:22;;;;;;;9.27;3.78;;;;;;;;;;4955054;28;20038;-52
2023/04/26 12:25:51;;;;;;;7.03;3.27;;;;;;;;;;4955787;28;20464;-57
2023/04/26 12:28:16;;;;;;;10.13;3.35;;;;;;;;;;4950315;28;20097;-56
2023/04/26 12:30:42;;;;;;;8.77;3.50;;;;;;;;;;4950939;28;20039;-53
2023/04/26 12:33:07;;;;;;;9.53;3.40;;;;;;;;;;4952840;28;20035;-57
2023/04/26 12:35:33;;;;;;;9.07;3.63;;;;;;;;;;4956160;28;20035;-57
2023/04/26 12:38:00;;;;;;;8.27;3.53;;;;;;;;;;4955234;28;20106;-59
2023/04/26 12:40:25;;;;;;;11.40;3.30;;;;;;;;;;4953164;28;20039;-59
2023/04/26 12:42:51;;;;;;;9.27;3.73;;;;;;;;;;4955931;28;20105;-56
2023/04/26 12:45:18;;;;;;;8.47;3.50;;;;;;;;;;4951385;28;20027;-55
2023/04/26 12:47:46;;;;;;;7.82;3.08;;;;;;;;;;4951087;28;20860;-57
2023/04/26 12:50:14;;;;;;;9.70;3.65;;;;;;;;;;4947815;28;20031;-56
2023/04/26 12:52:41;;;;;;;8.73;3.67;;;;;;;;;;4952933;28;20066;-58
2023/04/26 12:55:09;;;;;;;8.07;3.60;;;;;;;;;;4952952;28;20042;-56
2023/04/26 12:57:35;;;;;;;7.63;3.50;;;;;;;;;;4952956;28;20027;-51
2023/04/26 13:00:00;;;;;;;9.05;3.33;;;;;;;;;;4952958;28;20027;-57
2023/04/26 13:02:26;;;;;;;9.17;3.30;;;;;;;;;;4953658;28;20042;-55
2023/04/26 13:04:51;;;;;;;10.27;3.70;;;;;;;;;;4951424;28;20150;-56
2023/04/26 13:07:16;;;;;;;8.80;3.50;;;;;;;;;;4952656;28;20042;-56
2023/04/26 13:09:42;;;;;;;10.87;3.70;;;;;;;;;;4953119;28;20112;-59
2023/04/26 13:12:07;;;;;;;7.03;3.40;;;;;;;;;;4951192;28;20045;-56
2023/04/26 13:14:32;;;;;;;6.33;3.10;;;;;;;;;;4951577;28;20028;-55
2023/04/26 13:16:58;;;;;;;7.73;3.50;;;;;;;;;;4950842;28;20031;-59
2023/04/26 13:19:25;;;;;;;8.67;3.40;;;;;;;;;;4952188;28;20086;-59
2023/04/26 13:21:51;;;;;;;8.32;2.80;;;;;;;;;;4950303;28;20043;-54
2023/04/26 13:24:17;;;;;;;7.15;3.15;;;;;;;;;;4951711;28;20034;-53
2023/04/26 13:26:45;;;;;;;10.40;3.50;;;;;;;;;;4956529;28;20409;-57
2023/04/26 13:29:10;;;;;;;7.22;3.40;;;;;;;;;;4953818;28;20039;-57
2023/04/26 13:31:36;;;;;;;7.33;3.40;;;;;;;;;;4953869;28;20042;-57
2023/04/26 13:34:02;;;;;;;8.50;3.23;;;;;;;;;;4953142;28;20027;-57
2023/04/26 13:36:27;;;;;;;6.90;3.42;;;;;;;;;;4958754;28;20035;-55
2023/04/26 13:38:52;;;;;;;10.43;3.07;;;;;;;;;;4955980;28;20049;-57
2023/04/26 13:41:18;;;;;;;6.97;3.50;;;;;;;;;;4955080;28;20035;-58
2023/04/26 13:43:43;;;;;;;7.77;3.37;;;;;;;;;;4952122;28;20523;-57
2023/04/26 13:46:08;;;;;;;11.57;4.00;;;;;;;;;;4960333;28;20036;-57
2023/04/26 13:48:34;;;;;;;8.93;3.43;;;;;;;;;;4957569;28;20150;-55
2023/04/26 13:50:59;;;;;;;7.13;3.30;;;;;;;;;;4954795;28;20035;-58
2023/04/26 13:53:24;;;;;;;10.13;3.43;;;;;;;;;;4953774;28;20030;-54
2023/04/26 13:55:50;;;;;;;7.30;3.20;;;;;;;;;;4973757;28;20536;-52
2023/04/26 13:58:15;;;;;;;11.93;4.30;;;;;;;;;;4955342;28;20031;-57
2023/04/26 14:00:41;;;;;;;11.83;3.77;;;;;;;;;;4955606;28;20030;-54
2023/04/26 14:03:06;;;;;;;9.30;3.47;;;;;;;;;;4955542;28;20043;-54
2023/04/26 14:05:31;;;;;;;12.17;3.70;;;;;;;;;;4953749;28;20031;-54
2023/04/26 14:07:57;;;;;;;9.23;3.40;;;;;;;;;;4954800;28;20776;-53
2023/04/26 14:10:22;;;;;;;10.73;3.43;;;;;;;;;;4952666;28;20094;-57
2023/04/26 14:12:48;;;;;;;9.50;3.77;;;;;;;;;;4954672;28;20027;-54
2023/04/26 14:15:13;;;;;;;9.77;3.47;;;;;;;;;;4954899;28;20042;-56
2023/04/26 14:17:39;;;;;;;7.97;3.60;;;;;;;;;;4953612;28;20045;-55
2023/04/26 14:20:07;;;;;;;9.23;4.03;;;;;;;;;;4955815;28;20046;-57
2023/04/26 14:22:32;;;;;;;10.93;3.67;;;;;;;;;;4955539;28;20038;-55
2023/04/26 14:24:57;;;;;;;9.10;3.67;;;;;;;;;;4954482;28;20437;-57